Time;durP1;ratioP1;P1;durP2;ratioP2;P2;SDS_P1;SDS_P2;PMS_P1;PMS_P2;Temp;Humidity;BMP_temperature;BMP_pressure;BME280_temperature;BME280_humidity;BME280_pressure;Samples;Min_cycle;Max_cycle;Signal;HPM_P1;HPM_P2
2024/04/21 00:00:24;;;;;;;;;7.33;6.67;;;;;;;;5501211;25;43785;-46
2024/04/21 00:02:49;;;;;;;;;7.00;6.00;;;;;;;;5499971;25;43934;-45
2024/04/21 00:05:14;;;;;;;;;6.67;6.00;;;;;;;;5495700;25;44121;-44
2024/04/21 00:07:39;;;;;;;;;14.33;9.67;;;;;;;;5469767;25;43977;-44
2024/04/21 00:10:05;;;;;;;;;8.00;7.33;;;;;;;;5480779;25;44022;-44
2024/04/21 00:12:30;;;;;;;;;13.67;9.00;;;;;;;;5483270;25;43829;-45
2024/04/21 00:14:55;;;;;;;;;8.67;5.67;;;;;;;;5494059;25;44914;-44
2024/04/21 00:17:20;;;;;;;;;8.67;6.00;;;;;;;;5486649;25;43949;-45
2024/04/21 00:19:46;;;;;;;;;11.67;5.33;;;;;;;;5467166;25;44048;-44
2024/04/21 00:22:11;;;;;;;;;6.00;6.00;;;;;;;;5466346;25;43884;-44
2024/04/21 00:24:36;;;;;;;;;9.33;6.67;;;;;;;;5457963;25;45720;-44
2024/04/21 00:27:01;;;;;;;;;11.00;5.67;;;;;;;;5484740;25;43911;-45
2024/04/21 00:29:26;;;;;;;;;9.67;7.33;;;;;;;;5463381;25;43882;-43
2024/04/21 00:31:52;;;;;;;;;10.00;7.67;;;;;;;;5485230;25;43816;-45
2024/04/21 00:34:17;;;;;;;;;8.33;8.00;;;;;;;;5474151;25;45869;-43
2024/04/21 00:36:42;;;;;;;;;7.67;7.67;;;;;;;;5484756;25;44011;-45
2024/04/21 00:39:07;;;;;;;;;9.33;7.67;;;;;;;;5474511;25;43824;-44
2024/04/21 00:41:33;;;;;;;;;10.00;9.67;;;;;;;;5466803;25;43876;-46
2024/04/21 00:43:58;;;;;;;;;11.00;10.33;;;;;;;;5467902;25;45057;-44
2024/04/21 00:46:24;;;;;;;;;9.00;7.00;;;;;;;;5467594;25;43931;-44
2024/04/21 00:48:49;;;;;;;;;6.00;5.33;;;;;;;;5491743;25;43695;-43
2024/04/21 00:51:19;;;;;;;;;11.33;10.00;;;;;;;;5486109;25;43924;-44
2024/04/21 00:53:44;;;;;;;;;11.00;8.33;;;;;;;;5479705;25;44087;-44
2024/04/21 00:56:11;;;;;;;;;10.00;6.00;;;;;;;;5498883;25;43912;-45
2024/04/21 00:58:38;;;;;;;;;8.00;8.00;;;;;;;;5496621;25;43974;-44
2024/04/21 01:01:03;;;;;;;;;11.67;10.33;;;;;;;;5469639;25;43967;-44
2024/04/21 01:03:29;;;;;;;;;9.00;9.00;;;;;;;;5480416;25;44337;-44
2024/04/21 01:05:54;;;;;;;;;10.67;10.00;;;;;;;;5500666;25;43846;-43
2024/04/21 01:08:19;;;;;;;;;10.00;8.33;;;;;;;;5497655;25;43948;-44
2024/04/21 01:10:45;;;;;;;;;13.33;10.00;;;;;;;;5469706;25;44030;-45
2024/04/21 01:13:10;;;;;;;;;10.67;9.00;;;;;;;;5481120;25;45035;-46
2024/04/21 01:15:35;;;;;;;;;11.67;8.33;;;;;;;;5484908;25;43984;-43
2024/04/21 01:18:01;;;;;;;;;11.33;8.00;;;;;;;;5499247;25;43755;-44
2024/04/21 01:20:27;;;;;;;;;9.67;9.33;;;;;;;;5494657;25;43857;-43
2024/04/21 01:22:52;;;;;;;;;10.67;7.33;;;;;;;;5493058;25;43907;-44
2024/04/21 01:25:19;;;;;;;;;9.33;8.67;;;;;;;;5485872;25;44001;-44
2024/04/21 01:27:44;;;;;;;;;12.00;7.00;;;;;;;;5460757;25;43896;-44
2024/04/21 01:30:09;;;;;;;;;5.00;5.00;;;;;;;;5501256;25;44254;-44
2024/04/21 01:32:35;;;;;;;;;6.33;5.67;;;;;;;;5499690;25;44784;-44
2024/04/21 01:35:00;;;;;;;;;11.00;6.33;;;;;;;;5500974;25;43819;-45
2024/04/21 01:37:25;;;;;;;;;9.00;5.33;;;;;;;;5499741;25;43813;-45
2024/04/21 01:39:50;;;;;;;;;9.33;8.00;;;;;;;;5480895;25;43798;-45
2024/04/21 01:42:15;;;;;;;;;7.00;6.33;;;;;;;;5500215;25;45745;-45
2024/04/21 01:44:41;;;;;;;;;8.00;8.00;;;;;;;;5499978;25;43959;-46
2024/04/21 01:47:06;;;;;;;;;4.67;4.33;;;;;;;;5467382;25;43915;-46
2024/04/21 01:49:31;;;;;;;;;6.00;5.00;;;;;;;;5470194;25;43837;-45
2024/04/21 01:51:56;;;;;;;;;8.00;7.33;;;;;;;;5499875;25;44905;-45
2024/04/21 01:54:21;;;;;;;;;4.00;4.00;;;;;;;;5500087;25;43877;-45
2024/04/21 01:56:47;;;;;;;;;7.33;5.00;;;;;;;;5481351;25;44104;-44
2024/04/21 01:59:12;;;;;;;;;6.67;6.33;;;;;;;;5499946;25;43827;-45
2024/04/21 02:01:37;;;;;;;;;8.33;5.00;;;;;;;;5501810;25;44602;-46
2024/04/21 02:04:03;;;;;;;;;9.00;7.33;;;;;;;;5503860;25;43989;-45
2024/04/21 02:06:28;;;;;;;;;6.33;6.33;;;;;;;;5503179;25;44023;-45
2024/04/21 02:08:53;;;;;;;;;9.00;6.67;;;;;;;;5458596;26;43866;-45
2024/04/21 02:11:19;;;;;;;;;8.33;7.00;;;;;;;;5444518;25;43970;-44
2024/04/21 02:13:44;;;;;;;;;7.00;7.00;;;;;;;;5484219;25;44477;-45
2024/04/21 02:16:09;;;;;;;;;6.67;6.33;;;;;;;;5484772;25;43876;-45
2024/04/21 02:18:34;;;;;;;;;8.00;6.67;;;;;;;;5490706;25;43974;-45
2024/04/21 02:20:59;;;;;;;;;8.33;6.00;;;;;;;;5468041;25;44276;-45
2024/04/21 02:23:24;;;;;;;;;5.00;5.00;;;;;;;;5478912;25;44738;-46
2024/04/21 02:25:59;;;;;;;;;6.33;5.00;;;;;;;;5479822;25;43925;-44
2024/04/21 02:28:25;;;;;;;;;18.00;4.33;;;;;;;;5489428;25;43967;-44
2024/04/21 02:30:50;;;;;;;;;7.67;5.33;;;;;;;;5460161;25;44969;-46
2024/04/21 02:33:15;;;;;;;;;8.00;5.33;;;;;;;;5481767;25;43867;-45
2024/04/21 02:35:41;;;;;;;;;9.67;8.00;;;;;;;;5480923;25;44508;-45
2024/04/21 02:38:06;;;;;;;;;4.00;4.00;;;;;;;;5500819;25;43825;-44
2024/04/21 02:40:32;;;;;;;;;8.00;8.00;;;;;;;;5480091;25;44725;-47
2024/04/21 02:42:57;;;;;;;;;5.00;5.00;;;;;;;;5463461;25;43626;-48
2024/04/21 02:45:22;;;;;;;;;7.33;5.67;;;;;;;;5494435;25;43987;-45
2024/04/21 02:47:47;;;;;;;;;10.00;7.00;;;;;;;;5501292;25;44223;-45
2024/04/21 02:50:13;;;;;;;;;5.00;5.00;;;;;;;;5496700;25;44192;-46
2024/04/21 02:52:38;;;;;;;;;6.00;4.50;;;;;;;;5481807;25;43938;-47
2024/04/21 02:55:03;;;;;;;;;8.67;7.67;;;;;;;;5502936;25;43865;-44
2024/04/21 02:57:29;;;;;;;;;10.33;6.00;;;;;;;;5502416;25;43883;-45
2024/04/21 02:59:55;;;;;;;;;7.00;6.00;;;;;;;;5503065;25;44915;-45
2024/04/21 03:02:20;;;;;;;;;7.33;4.33;;;;;;;;5472905;25;43805;-45
2024/04/21 03:04:45;;;;;;;;;7.67;4.00;;;;;;;;5475188;25;43765;-45
2024/04/21 03:07:10;;;;;;;;;8.00;5.00;;;;;;;;5502994;25;43916;-44
2024/04/21 03:09:36;;;;;;;;;7.67;5.00;;;;;;;;5501155;25;45386;-45
2024/04/21 03:12:01;;;;;;;;;7.67;5.00;;;;;;;;5492948;25;44014;-45
2024/04/21 03:14:26;;;;;;;;;4.33;3.00;;;;;;;;5474644;25;43864;-44
2024/04/21 03:16:51;;;;;;;;;6.00;4.00;;;;;;;;5502625;25;43950;-44
2024/04/21 03:19:16;;;;;;;;;5.00;5.00;;;;;;;;5481547;25;45006;-44
2024/04/21 03:21:41;;;;;;;;;7.00;5.00;;;;;;;;5477973;25;43957;-45
2024/04/21 03:24:06;;;;;;;;;4.33;4.33;;;;;;;;5482267;25;43892;-45
2024/04/21 03:26:32;;;;;;;;;6.00;3.67;;;;;;;;5459874;26;43843;-45
2024/04/21 03:28:57;;;;;;;;;4.67;4.67;;;;;;;;5456698;25;45978;-46
2024/04/21 03:31:22;;;;;;;;;4.33;4.00;;;;;;;;5472893;25;43916;-45
2024/04/21 03:33:47;;;;;;;;;5.00;5.00;;;;;;;;5469128;25;43988;-45
2024/04/21 03:36:12;;;;;;;;;5.33;3.00;;;;;;;;5461234;25;43760;-45
2024/04/21 03:38:38;;;;;;;;;3.00;3.00;;;;;;;;5488511;25;45892;-45
2024/04/21 03:41:03;;;;;;;;;3.00;3.00;;;;;;;;5449238;25;43911;-45
2024/04/21 03:43:29;;;;;;;;;2.00;2.00;;;;;;;;5482570;25;43937;-45
2024/04/21 03:45:54;;;;;;;;;2.33;2.33;;;;;;;;5473713;25;44214;-47
2024/04/21 03:48:19;;;;;;;;;2.67;2.00;;;;;;;;5489339;25;44155;-45
2024/04/21 03:50:44;;;;;;;;;5.33;2.33;;;;;;;;5473150;25;43800;-45
2024/04/21 03:53:12;;;;;;;;;3.00;1.33;;;;;;;;5489401;25;43960;-45
2024/04/21 03:55:37;;;;;;;;;2.33;1.00;;;;;;;;5480573;25;43901;-45
2024/04/21 03:58:02;;;;;;;;;3.00;3.00;;;;;;;;5493419;25;44963;-47
2024/04/21 04:00:27;;;;;;;;;4.00;3.00;;;;;;;;5494804;25;43711;-46
2024/04/21 04:02:53;;;;;;;;;2.33;2.00;;;;;;;;5489420;25;43949;-45
2024/04/21 04:05:18;;;;;;;;;4.33;3.00;;;;;;;;5496403;25;44348;-44
2024/04/21 04:07:43;;;;;;;;;3.00;3.00;;;;;;;;5488666;25;43895;-45
2024/04/21 04:10:08;;;;;;;;;3.00;2.33;;;;;;;;5469905;25;43961;-45
2024/04/21 04:12:41;;;;;;;;;1.00;1.00;;;;;;;;5501836;25;44045;-45
2024/04/21 04:15:06;;;;;;;;;4.00;2.33;;;;;;;;5482706;25;43861;-45
2024/04/21 04:17:32;;;;;;;;;2.00;2.00;;;;;;;;5468616;25;45700;-46
2024/04/21 04:19:57;;;;;;;;;2.67;2.33;;;;;;;;5474193;25;43697;-45
2024/04/21 04:22:22;;;;;;;;;5.33;1.67;;;;;;;;5486809;25;44023;-46
2024/04/21 04:24:47;;;;;;;;;3.67;1.33;;;;;;;;5438915;26;44097;-47
2024/04/21 04:27:12;;;;;;;;;2.00;1.00;;;;;;;;5486440;25;44768;-45
2024/04/21 04:29:38;;;;;;;;;4.00;3.00;;;;;;;;5478978;25;44003;-45
2024/04/21 04:32:03;;;;;;;;;9.00;2.67;;;;;;;;5483507;25;43902;-44
2024/04/21 04:34:28;;;;;;;;;2.00;2.00;;;;;;;;5497884;25;43997;-44
2024/04/21 04:36:53;;;;;;;;;1.00;1.00;;;;;;;;5502157;25;43857;-45
2024/04/21 04:39:18;;;;;;;;;1.00;1.00;;;;;;;;5473274;25;43943;-45
2024/04/21 04:41:43;;;;;;;;;9.33;3.00;;;;;;;;5467501;25;44352;-45
2024/04/21 04:44:09;;;;;;;;;4.67;2.00;;;;;;;;5492189;25;44248;-44
2024/04/21 04:46:34;;;;;;;;;3.00;1.00;;;;;;;;5452221;25;46601;-44
2024/04/21 04:48:59;;;;;;;;;3.00;3.00;;;;;;;;5495803;25;43725;-45
2024/04/21 04:51:24;;;;;;;;;2.67;1.67;;;;;;;;5485155;25;44005;-45
2024/04/21 04:53:50;;;;;;;;;1.00;1.00;;;;;;;;5479401;25;44187;-46
2024/04/21 04:56:15;;;;;;;;;2.00;1.00;;;;;;;;5500637;25;43946;-45
2024/04/21 04:58:40;;;;;;;;;3.33;3.33;;;;;;;;5459140;25;43999;-45
2024/04/21 05:01:05;;;;;;;;;2.67;2.00;;;;;;;;5501696;25;43983;-45
2024/04/21 05:03:30;;;;;;;;;7.67;3.00;;;;;;;;5479402;25;43935;-46
2024/04/21 05:05:56;;;;;;;;;2.67;1.00;;;;;;;;5484818;25;43985;-46
2024/04/21 05:08:21;;;;;;;;;3.67;2.00;;;;;;;;5470334;25;44021;-45
2024/04/21 05:10:46;;;;;;;;;2.00;2.00;;;;;;;;5481667;25;43790;-45
2024/04/21 05:13:11;;;;;;;;;3.00;2.50;;;;;;;;5479334;25;43815;-45
2024/04/21 05:15:36;;;;;;;;;3.33;2.00;;;;;;;;5484448;25;45217;-45
2024/04/21 05:18:01;;;;;;;;;0.67;0.00;;;;;;;;5489412;25;44025;-44
2024/04/21 05:20:27;;;;;;;;;2.00;2.00;;;;;;;;5481114;25;44075;-45
2024/04/21 05:22:52;;;;;;;;;3.00;2.67;;;;;;;;5472952;25;44168;-44
2024/04/21 05:25:17;;;;;;;;;1.00;1.00;;;;;;;;5464668;25;44031;-45
2024/04/21 05:27:42;;;;;;;;;2.00;2.00;;;;;;;;5489296;25;43857;-44
2024/04/21 05:30:08;;;;;;;;;5.00;2.00;;;;;;;;5482072;25;43969;-45
2024/04/21 05:32:33;;;;;;;;;2.00;2.00;;;;;;;;5477027;25;43900;-47
2024/04/21 05:34:58;;;;;;;;;1.00;1.00;;;;;;;;5485299;25;43976;-46
2024/04/21 05:37:23;;;;;;;;;3.67;1.67;;;;;;;;5470408;25;43887;-45
2024/04/21 05:39:49;;;;;;;;;2.00;2.00;;;;;;;;5469345;25;43979;-45
2024/04/21 05:42:14;;;;;;;;;3.00;3.00;;;;;;;;5494026;25;43989;-45
2024/04/21 05:44:39;;;;;;;;;3.00;2.00;;;;;;;;5469031;25;45171;-45
2024/04/21 05:47:04;;;;;;;;;3.00;2.00;;;;;;;;5473710;25;43769;-44
2024/04/21 05:49:30;;;;;;;;;5.00;2.00;;;;;;;;5503691;25;43944;-44
2024/04/21 05:51:55;;;;;;;;;2.67;2.67;;;;;;;;5481239;25;43796;-45
2024/04/21 05:54:20;;;;;;;;;3.00;2.33;;;;;;;;5503666;25;45293;-46
2024/04/21 05:56:45;;;;;;;;;3.00;2.00;;;;;;;;5502337;25;43930;-45
2024/04/21 05:59:10;;;;;;;;;9.00;4.00;;;;;;;;5491755;25;43711;-44
2024/04/21 06:01:35;;;;;;;;;2.00;2.00;;;;;;;;5495659;25;43739;-44
2024/04/21 06:04:01;;;;;;;;;1.67;1.67;;;;;;;;5503323;25;45347;-45
2024/04/21 06:06:26;;;;;;;;;4.67;2.67;;;;;;;;5451620;25;43849;-45
2024/04/21 06:08:51;;;;;;;;;2.33;1.67;;;;;;;;5503664;25;44070;-44
2024/04/21 06:11:16;;;;;;;;;3.00;2.67;;;;;;;;5503812;25;43703;-46
2024/04/21 06:13:41;;;;;;;;;4.00;2.00;;;;;;;;5483862;25;43975;-45
2024/04/21 06:16:06;;;;;;;;;2.00;2.00;;;;;;;;5503224;25;43679;-45
2024/04/21 06:18:32;;;;;;;;;3.00;2.00;;;;;;;;5470533;25;44019;-45
2024/04/21 06:20:57;;;;;;;;;3.67;3.00;;;;;;;;5468226;25;44052;-45
2024/04/21 06:23:22;;;;;;;;;3.00;1.67;;;;;;;;5492392;25;44774;-44
2024/04/21 06:25:47;;;;;;;;;5.33;3.33;;;;;;;;5441907;26;44521;-46
2024/04/21 06:28:12;;;;;;;;;2.00;2.00;;;;;;;;5469896;25;44033;-45
2024/04/21 06:30:38;;;;;;;;;4.00;2.00;;;;;;;;5490133;25;43636;-45
2024/04/21 06:33:03;;;;;;;;;3.00;2.33;;;;;;;;5470838;25;44098;-45
2024/04/21 06:35:28;;;;;;;;;1.67;1.67;;;;;;;;5457348;25;43642;-46
2024/04/21 06:37:53;;;;;;;;;2.00;2.00;;;;;;;;5471481;25;44096;-45
2024/04/21 06:40:19;;;;;;;;;2.67;2.67;;;;;;;;5468659;25;43990;-46
2024/04/21 06:42:44;;;;;;;;;2.33;2.00;;;;;;;;5492560;25;43926;-45
2024/04/21 06:45:09;;;;;;;;;2.00;1.33;;;;;;;;5467974;25;43796;-46
2024/04/21 06:47:34;;;;;;;;;3.00;1.33;;;;;;;;5478321;25;44120;-47
2024/04/21 06:49:59;;;;;;;;;3.00;3.00;;;;;;;;5482342;25;43970;-44
2024/04/21 06:52:24;;;;;;;;;1.67;1.33;;;;;;;;5492597;25;44952;-46
2024/04/21 06:54:50;;;;;;;;;3.00;1.33;;;;;;;;5490251;25;44075;-45
2024/04/21 06:57:15;;;;;;;;;3.33;2.00;;;;;;;;5501944;25;43827;-44
2024/04/21 06:59:40;;;;;;;;;1.00;1.00;;;;;;;;5482289;25;43815;-44
2024/04/21 07:02:05;;;;;;;;;2.00;2.00;;;;;;;;5481051;25;44947;-44
2024/04/21 07:04:32;;;;;;;;;2.00;2.00;;;;;;;;5502644;25;43783;-46
2024/04/21 07:06:57;;;;;;;;;3.33;2.00;;;;;;;;5469934;25;43976;-45
2024/04/21 07:09:22;;;;;;;;;5.00;1.67;;;;;;;;5503385;25;43942;-46
2024/04/21 07:11:48;;;;;;;;;2.67;2.00;;;;;;;;5482127;25;43817;-46
2024/04/21 07:14:13;;;;;;;;;2.67;2.00;;;;;;;;5495707;25;43942;-46
2024/04/21 07:16:38;;;;;;;;;2.00;2.00;;;;;;;;5477614;25;44001;-45
2024/04/21 07:19:03;;;;;;;;;2.67;2.00;;;;;;;;5469104;25;43910;-46
2024/04/21 07:21:28;;;;;;;;;2.00;2.00;;;;;;;;5497597;25;44660;-46
2024/04/21 07:23:53;;;;;;;;;1.00;1.00;;;;;;;;5470171;25;43807;-45
2024/04/21 07:26:19;;;;;;;;;6.00;2.00;;;;;;;;5481803;25;44125;-45
2024/04/21 07:28:45;;;;;;;;;2.00;2.00;;;;;;;;5486459;25;44139;-45
2024/04/21 07:31:10;;;;;;;;;2.33;2.33;;;;;;;;5473319;25;46122;-45
2024/04/21 07:33:35;;;;;;;;;2.00;2.00;;;;;;;;5485166;25;43859;-46
2024/04/21 07:36:00;;;;;;;;;4.00;2.67;;;;;;;;5479316;25;43836;-45
2024/04/21 07:38:26;;;;;;;;;2.00;2.00;;;;;;;;5469901;25;44098;-45
2024/04/21 07:40:51;;;;;;;;;1.00;1.00;;;;;;;;5474155;25;43919;-45
2024/04/21 07:43:16;;;;;;;;;2.00;2.00;;;;;;;;5485801;25;43882;-46
2024/04/21 07:45:41;;;;;;;;;1.00;1.00;;;;;;;;5477783;25;43750;-46
2024/04/21 07:48:08;;;;;;;;;3.00;1.00;;;;;;;;5485627;25;43693;-45
2024/04/21 07:50:34;;;;;;;;;1.00;1.00;;;;;;;;5482662;25;45334;-45
2024/04/21 07:52:59;;;;;;;;;4.00;1.00;;;;;;;;5502681;25;43968;-47
2024/04/21 07:55:24;;;;;;;;;4.00;1.00;;;;;;;;5500014;25;44047;-45
2024/04/21 07:57:49;;;;;;;;;1.67;1.67;;;;;;;;5500945;25;43856;-45
2024/04/21 08:00:15;;;;;;;;;2.00;2.00;;;;;;;;5502201;25;44108;-45
2024/04/21 08:02:40;;;;;;;;;4.00;1.00;;;;;;;;5485401;25;43989;-49
2024/04/21 08:05:05;;;;;;;;;0.67;0.67;;;;;;;;5472984;25;43872;-47
2024/04/21 08:07:30;;;;;;;;;2.00;0.50;;;;;;;;5469163;25;44306;-46
2024/04/21 08:09:55;;;;;;;;;1.00;0.67;;;;;;;;5476532;25;45313;-49
2024/04/21 08:12:21;;;;;;;;;3.50;0.75;;;;;;;;5487077;25;43921;-47
2024/04/21 08:14:46;;;;;;;;;4.00;1.00;;;;;;;;5493296;25;43885;-46
2024/04/21 08:17:11;;;;;;;;;1.33;1.33;;;;;;;;5485091;25;43890;-48
2024/04/21 08:19:36;;;;;;;;;2.25;0.75;;;;;;;;5498158;25;45122;-45
2024/04/21 08:22:01;;;;;;;;;3.00;2.00;;;;;;;;5466934;25;44040;-47
2024/04/21 08:24:26;;;;;;;;;1.00;1.00;;;;;;;;5467485;25;43772;-46
2024/04/21 08:26:54;;;;;;;;;0.00;0.00;;;;;;;;5466995;25;43804;-47
2024/04/21 08:29:22;;;;;;;;;0.00;0.00;;;;;;;;5471201;25;44290;-46
2024/04/21 08:31:47;;;;;;;;;1.00;1.00;;;;;;;;5484643;25;43879;-46
2024/04/21 08:34:12;;;;;;;;;1.00;1.00;;;;;;;;5469544;25;43705;-46
2024/04/21 08:36:37;;;;;;;;;0.67;0.67;;;;;;;;5437109;25;44182;-45
2024/04/21 08:39:04;;;;;;;;;2.00;1.33;;;;;;;;5478836;25;44624;-46
2024/04/21 08:41:33;;;;;;;;;2.00;1.00;;;;;;;;5501281;25;43715;-46
2024/04/21 08:43:59;;;;;;;;;1.00;1.00;;;;;;;;5501931;25;43749;-46
2024/04/21 08:46:24;;;;;;;;;3.00;1.00;;;;;;;;5468150;25;44117;-46
2024/04/21 08:48:50;;;;;;;;;1.00;1.00;;;;;;;;5464359;25;45250;-46
2024/04/21 08:51:15;;;;;;;;;0.50;0.50;;;;;;;;5484216;25;43842;-47
2024/04/21 08:53:40;;;;;;;;;2.00;1.00;;;;;;;;5446998;25;43859;-45
2024/04/21 08:56:16;;;;;;;;;1.00;1.00;;;;;;;;5501239;25;43861;-46
2024/04/21 08:58:43;;;;;;;;;0.00;0.00;;;;;;;;5495740;25;44068;-47
2024/04/21 09:01:09;;;;;;;;;1.33;0.67;;;;;;;;5435917;26;43788;-46
2024/04/21 09:03:36;;;;;;;;;1.67;0.00;;;;;;;;5493129;25;44260;-49
2024/04/21 09:06:01;;;;;;;;;1.33;0.00;;;;;;;;5482124;25;43780;-46
2024/04/21 09:08:26;;;;;;;;;0.00;0.00;;;;;;;;5495432;25;43961;-46
2024/04/21 09:10:51;;;;;;;;;0.67;0.67;;;;;;;;5489428;25;43827;-46
2024/04/21 09:13:17;;;;;;;;;2.00;0.00;;;;;;;;5484625;25;44025;-46
2024/04/21 09:15:42;;;;;;;;;1.67;1.00;;;;;;;;5486353;25;43995;-47
2024/04/21 09:18:07;;;;;;;;;0.00;0.00;;;;;;;;5495954;25;44932;-47
2024/04/21 09:20:35;;;;;;;;;3.00;1.00;;;;;;;;5453039;25;43902;-46
2024/04/21 09:23:00;;;;;;;;;0.00;0.00;;;;;;;;5464690;25;43871;-46
2024/04/21 09:25:25;;;;;;;;;6.00;0.00;;;;;;;;5468406;25;43819;-47
2024/04/21 09:27:50;;;;;;;;;1.50;1.00;;;;;;;;5472014;25;44596;-45
2024/04/21 09:30:17;;;;;;;;;0.00;0.00;;;;;;;;5486521;25;43829;-45
2024/04/21 09:32:42;;;;;;;;;0.50;0.50;;;;;;;;5480753;25;44052;-44
2024/04/21 09:35:09;;;;;;;;;2.50;1.00;;;;;;;;5487576;25;44016;-45
2024/04/21 09:37:34;;;;;;;;;2.00;1.00;;;;;;;;5472045;25;43952;-44
2024/04/21 09:40:00;;;;;;;;;2.00;1.25;;;;;;;;5486688;25;43900;-43
2024/04/21 09:42:28;;;;;;;;;1.25;1.00;;;;;;;;5470445;25;43845;-45
2024/04/21 09:44:53;;;;;;;;;1.33;1.00;;;;;;;;5487143;25;43855;-47
2024/04/21 09:47:19;;;;;;;;;2.33;1.33;;;;;;;;5499317;25;44654;-46
2024/04/21 09:49:45;;;;;;;;;1.00;1.00;;;;;;;;5488916;25;43884;-52
2024/04/21 09:52:11;;;;;;;;;3.67;1.00;;;;;;;;5471819;25;44104;-46
2024/04/21 09:54:37;;;;;;;;;1.00;1.00;;;;;;;;5486833;25;44161;-47
2024/04/21 09:57:05;;;;;;;;;1.00;1.00;;;;;;;;5502837;25;45485;-44
2024/04/21 09:59:31;;;;;;;;;1.00;1.00;;;;;;;;5485488;25;45061;-46
2024/04/21 10:01:57;;;;;;;;;2.00;1.00;;;;;;;;5496162;25;43990;-43
2024/04/21 10:04:24;;;;;;;;;3.33;0.67;;;;;;;;5488693;25;44079;-46
2024/04/21 10:06:51;;;;;;;;;3.00;1.00;;;;;;;;5480858;25;45094;-46
2024/04/21 10:09:19;;;;;;;;;1.00;1.00;;;;;;;;5471533;25;43869;-45
2024/04/21 10:11:44;;;;;;;;;1.00;1.00;;;;;;;;5481910;25;44042;-48
2024/04/21 10:14:10;;;;;;;;;1.00;1.00;;;;;;;;5486026;25;43867;-46
2024/04/21 10:16:39;;;;;;;;;1.67;0.00;;;;;;;;5462604;25;44832;-45
2024/04/21 10:19:05;;;;;;;;;1.00;1.00;;;;;;;;5468467;25;43958;-46
2024/04/21 10:21:30;;;;;;;;;1.00;1.00;;;;;;;;5491561;25;43695;-45
2024/04/21 10:23:55;;;;;;;;;5.33;2.00;;;;;;;;5468479;25;43875;-46
2024/04/21 10:26:21;;;;;;;;;3.67;1.00;;;;;;;;5492420;25;44010;-45
2024/04/21 10:28:46;;;;;;;;;1.00;0.00;;;;;;;;5486969;25;43980;-45
2024/04/21 10:31:11;;;;;;;;;6.33;2.67;;;;;;;;5473968;25;43894;-46
2024/04/21 10:33:40;;;;;;;;;3.33;3.33;;;;;;;;5486629;25;43718;-45
2024/04/21 10:36:17;;;;;;;;;7.00;5.67;;;;;;;;5474417;25;45148;-46
2024/04/21 10:38:48;;;;;;;;;3.00;1.00;;;;;;;;5469046;25;43931;-47
2024/04/21 10:41:13;;;;;;;;;7.33;5.67;;;;;;;;5491534;25;43811;-44
2024/04/21 10:43:38;;;;;;;;;3.00;2.00;;;;;;;;5472762;25;43969;-45
2024/04/21 10:46:03;;;;;;;;;8.00;6.00;;;;;;;;5482552;25;45252;-45
2024/04/21 10:48:28;;;;;;;;;10.67;8.00;;;;;;;;5501803;25;43903;-47
2024/04/21 10:50:55;;;;;;;;;3.67;1.67;;;;;;;;5498192;25;43899;-45
2024/04/21 10:53:21;;;;;;;;;2.00;2.00;;;;;;;;5482793;25;43849;-45
2024/04/21 10:55:47;;;;;;;;;2.67;2.33;;;;;;;;5501988;25;44697;-46
2024/04/21 10:58:13;;;;;;;;;3.00;3.00;;;;;;;;5502867;25;44003;-46
2024/04/21 11:00:38;;;;;;;;;0.67;0.67;;;;;;;;5502442;25;44816;-46
2024/04/21 11:03:04;;;;;;;;;0.67;0.67;;;;;;;;5482727;25;44025;-45
2024/04/21 11:05:32;;;;;;;;;0.67;0.67;;;;;;;;5482105;25;44182;-45
2024/04/21 11:07:57;;;;;;;;;2.33;0.67;;;;;;;;5502980;25;43860;-44
2024/04/21 11:10:23;;;;;;;;;3.00;1.33;;;;;;;;5502868;25;43709;-44
2024/04/21 11:12:48;;;;;;;;;2.00;2.00;;;;;;;;5502680;25;44007;-45
2024/04/21 11:15:13;;;;;;;;;2.67;1.00;;;;;;;;5492303;25;45137;-45
2024/04/21 11:17:39;;;;;;;;;2.67;0.67;;;;;;;;5439434;26;43981;-45
2024/04/21 11:20:04;;;;;;;;;2.00;1.33;;;;;;;;5492390;25;43679;-45
2024/04/21 11:22:29;;;;;;;;;1.67;1.00;;;;;;;;5489277;25;43950;-44
2024/04/21 11:24:55;;;;;;;;;3.67;2.00;;;;;;;;5479804;25;44652;-46
2024/04/21 11:27:20;;;;;;;;;2.67;1.00;;;;;;;;5490301;25;43937;-44
2024/04/21 11:29:46;;;;;;;;;2.00;1.00;;;;;;;;5502336;25;43995;-45
2024/04/21 11:32:11;;;;;;;;;1.67;1.33;;;;;;;;5502457;25;43757;-45
2024/04/21 11:34:37;;;;;;;;;3.00;2.00;;;;;;;;5502075;25;43942;-47
2024/04/21 11:37:02;;;;;;;;;4.00;1.00;;;;;;;;5502925;25;43935;-47
2024/04/21 11:39:27;;;;;;;;;2.00;1.00;;;;;;;;5502185;25;43720;-45
2024/04/21 11:41:53;;;;;;;;;2.00;1.00;;;;;;;;5502662;25;43893;-49
2024/04/21 11:44:18;;;;;;;;;0.33;0.33;;;;;;;;5498298;25;45078;-46
2024/04/21 11:46:44;;;;;;;;;2.00;2.00;;;;;;;;5502340;25;43901;-48
2024/04/21 11:49:09;;;;;;;;;1.00;1.00;;;;;;;;5475774;25;43860;-46
2024/04/21 11:51:34;;;;;;;;;2.00;2.00;;;;;;;;5502042;25;43959;-44
2024/04/21 11:53:59;;;;;;;;;2.00;1.00;;;;;;;;5481316;25;44937;-46
2024/04/21 11:56:25;;;;;;;;;1.00;1.00;;;;;;;;5491859;25;43938;-46
2024/04/21 11:58:50;;;;;;;;;0.00;0.00;;;;;;;;5482453;25;43695;-47
2024/04/21 12:01:15;;;;;;;;;2.00;1.00;;;;;;;;5488585;25;43769;-47
2024/04/21 12:03:41;;;;;;;;;2.00;2.00;;;;;;;;5501462;25;44635;-45
2024/04/21 12:06:06;;;;;;;;;0.50;0.50;;;;;;;;5502410;25;44020;-45
2024/04/21 12:08:31;;;;;;;;;2.67;0.67;;;;;;;;5477612;25;43626;-45
2024/04/21 12:10:56;;;;;;;;;3.50;1.75;;;;;;;;5499099;25;43821;-45
2024/04/21 12:13:21;;;;;;;;;1.50;1.00;;;;;;;;5476779;25;44900;-45
2024/04/21 12:15:46;;;;;;;;;2.00;1.00;;;;;;;;5438322;26;43861;-45
2024/04/21 12:18:12;;;;;;;;;1.75;1.00;;;;;;;;5468199;25;43983;-45
2024/04/21 12:20:37;;;;;;;;;0.00;0.00;;;;;;;;5501916;25;44098;-45
2024/04/21 12:23:03;;;;;;;;;1.00;1.00;;;;;;;;5500882;25;44899;-47
2024/04/21 12:25:28;;;;;;;;;2.00;1.00;;;;;;;;5501731;25;43853;-46
2024/04/21 12:27:53;;;;;;;;;3.00;2.00;;;;;;;;5502221;25;43787;-44
2024/04/21 12:30:19;;;;;;;;;1.00;1.00;;;;;;;;5498256;25;43954;-45
2024/04/21 12:32:45;;;;;;;;;0.50;0.50;;;;;;;;5490351;25;44029;-45
2024/04/21 12:35:10;;;;;;;;;3.00;2.00;;;;;;;;5502158;25;43987;-49
2024/04/21 12:37:35;;;;;;;;;0.25;0.25;;;;;;;;5501331;25;44374;-46
2024/04/21 12:40:00;;;;;;;;;1.00;0.00;;;;;;;;5496075;25;43916;-49
2024/04/21 12:42:26;;;;;;;;;1.50;0.50;;;;;;;;5466141;25;45067;-45
2024/04/21 12:44:51;;;;;;;;;2.00;1.00;;;;;;;;5500080;25;43843;-46
2024/04/21 12:47:16;;;;;;;;;1.00;1.00;;;;;;;;5500407;25;43816;-45
2024/04/21 12:49:41;;;;;;;;;1.33;1.33;;;;;;;;5501316;25;44292;-47
2024/04/21 12:52:07;;;;;;;;;1.67;1.67;;;;;;;;5501547;25;44026;-45
2024/04/21 12:54:32;;;;;;;;;1.00;1.00;;;;;;;;5500962;25;44201;-47
2024/04/21 12:56:58;;;;;;;;;0.00;0.00;;;;;;;;5500949;25;43836;-45
2024/04/21 12:59:23;;;;;;;;;1.00;1.00;;;;;;;;5486259;25;44047;-45
2024/04/21 13:01:48;;;;;;;;;0.00;0.00;;;;;;;;5463889;25;44838;-47
2024/04/21 13:04:13;;;;;;;;;0.67;0.67;;;;;;;;5501441;25;43975;-44
2024/04/21 13:06:39;;;;;;;;;1.33;1.33;;;;;;;;5496854;25;44020;-46
2024/04/21 13:09:04;;;;;;;;;1.33;1.33;;;;;;;;5454361;26;43884;-45
2024/04/21 13:11:29;;;;;;;;;1.67;1.67;;;;;;;;5494610;25;45166;-45
2024/04/21 13:13:54;;;;;;;;;1.67;1.67;;;;;;;;5472507;25;44013;-45
2024/04/21 13:16:19;;;;;;;;;1.00;1.00;;;;;;;;5477327;25;43794;-46
2024/04/21 13:18:44;;;;;;;;;1.33;0.67;;;;;;;;5482863;25;44160;-45
2024/04/21 13:21:09;;;;;;;;;2.33;1.00;;;;;;;;5500651;25;43916;-47
2024/04/21 13:23:35;;;;;;;;;1.00;1.00;;;;;;;;5466807;25;43862;-45
2024/04/21 13:26:00;;;;;;;;;2.00;1.00;;;;;;;;5459153;25;44017;-45
2024/04/21 13:28:25;;;;;;;;;2.00;2.00;;;;;;;;5466856;25;43688;-45
2024/04/21 13:30:51;;;;;;;;;0.67;0.00;;;;;;;;5472184;25;45545;-47
2024/04/21 13:33:16;;;;;;;;;1.00;1.00;;;;;;;;5479487;25;43940;-45
2024/04/21 13:35:41;;;;;;;;;1.00;1.00;;;;;;;;5447071;25;43947;-45
2024/04/21 13:38:07;;;;;;;;;2.00;2.00;;;;;;;;5479754;25;43926;-44
2024/04/21 13:40:32;;;;;;;;;3.67;2.00;;;;;;;;5499289;25;43938;-45
2024/04/21 13:42:57;;;;;;;;;1.33;1.33;;;;;;;;5488916;25;43916;-44
2024/04/21 13:45:22;;;;;;;;;1.00;1.00;;;;;;;;5491562;25;44048;-45
2024/04/21 13:47:48;;;;;;;;;4.00;2.00;;;;;;;;5446964;25;43886;-46
2024/04/21 13:50:13;;;;;;;;;2.00;2.00;;;;;;;;5479343;25;43997;-46
2024/04/21 13:52:38;;;;;;;;;1.00;1.00;;;;;;;;5479068;25;43928;-45
2024/04/21 13:55:03;;;;;;;;;5.33;2.00;;;;;;;;5480307;25;43829;-45
2024/04/21 13:57:29;;;;;;;;;2.33;1.00;;;;;;;;5501502;25;43828;-47
2024/04/21 13:59:55;;;;;;;;;2.00;2.00;;;;;;;;5486169;25;45898;-47
2024/04/21 14:02:21;;;;;;;;;2.67;2.00;;;;;;;;5503135;25;43834;-44
2024/04/21 14:04:46;;;;;;;;;1.33;1.33;;;;;;;;5483738;25;43778;-44
2024/04/21 14:07:11;;;;;;;;;0.00;0.00;;;;;;;;5503673;25;43887;-45
2024/04/21 14:09:37;;;;;;;;;0.00;0.00;;;;;;;;5483323;25;45026;-45
2024/04/21 14:12:02;;;;;;;;;5.33;3.00;;;;;;;;5502261;25;43885;-45
2024/04/21 14:14:28;;;;;;;;;3.33;3.33;;;;;;;;5450776;25;43854;-47
2024/04/21 14:16:53;;;;;;;;;5.00;5.00;;;;;;;;5492657;25;43764;-44
2024/04/21 14:19:18;;;;;;;;;3.67;3.67;;;;;;;;5468302;25;44220;-45
2024/04/21 14:21:43;;;;;;;;;4.00;4.00;;;;;;;;5500965;25;43911;-44
2024/04/21 14:24:08;;;;;;;;;5.33;5.00;;;;;;;;5481120;25;43736;-44
2024/04/21 14:26:33;;;;;;;;;6.00;4.67;;;;;;;;5479751;25;43926;-44
2024/04/21 14:28:59;;;;;;;;;5.00;5.00;;;;;;;;5481341;25;44126;-44
2024/04/21 14:31:24;;;;;;;;;4.00;4.00;;;;;;;;5469989;25;44052;-45